sensor_id;sensor_type;location;lat;lon;timestamp;temperature;humidity
17619;DHT22;8928;51.678;6.074;2023-06-14T00:00:47;17.60;92.20
17619;DHT22;8928;51.678;6.074;2023-06-14T00:03:34;17.70;92.30
17619;DHT22;8928;51.678;6.074;2023-06-14T00:06:21;17.60;92.40
17619;DHT22;8928;51.678;6.074;2023-06-14T00:09:11;17.60;92.00
17619;DHT22;8928;51.678;6.074;2023-06-14T00:11:59;17.60;91.60
17619;DHT22;8928;51.678;6.074;2023-06-14T00:14:46;17.60;92.00
17619;DHT22;8928;51.678;6.074;2023-06-14T00:17:33;17.60;91.90
17619;DHT22;8928;51.678;6.074;2023-06-14T00:20:22;17.50;92.20
17619;DHT22;8928;51.678;6.074;2023-06-14T00:23:09;17.50;91.50
17619;DHT22;8928;51.678;6.074;2023-06-14T00:25:57;17.50;92.30
17619;DHT22;8928;51.678;6.074;2023-06-14T00:28:44;17.40;92.40
17619;DHT22;8928;51.678;6.074;2023-06-14T00:31:31;17.30;92.20
17619;DHT22;8928;51.678;6.074;2023-06-14T00:34:18;17.30;92.80
17619;DHT22;8928;51.678;6.074;2023-06-14T00:37:05;17.20;93.50
17619;DHT22;8928;51.678;6.074;2023-06-14T00:39:52;17.10;93.60
17619;DHT22;8928;51.678;6.074;2023-06-14T00:42:41;17.10;94.00
17619;DHT22;8928;51.678;6.074;2023-06-14T00:45:28;17.00;94.70
17619;DHT22;8928;51.678;6.074;2023-06-14T00:48:17;17.00;94.90
17619;DHT22;8928;51.678;6.074;2023-06-14T00:51:04;17.00;96.50
17619;DHT22;8928;51.678;6.074;2023-06-14T00:53:51;16.90;96.20
17619;DHT22;8928;51.678;6.074;2023-06-14T00:56:38;16.90;96.20
17619;DHT22;8928;51.678;6.074;2023-06-14T00:59:27;16.90;97.20
17619;DHT22;8928;51.678;6.074;2023-06-14T01:02:15;16.80;97.80
17619;DHT22;8928;51.678;6.074;2023-06-14T01:05:02;16.80;98.80
17619;DHT22;8928;51.678;6.074;2023-06-14T01:08:10;16.70;99.10
17619;DHT22;8928;51.678;6.074;2023-06-14T01:11:05;16.70;99.90
17619;DHT22;8928;51.678;6.074;2023-06-14T01:13:54;16.70;99.90
17619;DHT22;8928;51.678;6.074;2023-06-14T01:16:44;16.60;99.90
17619;DHT22;8928;51.678;6.074;2023-06-14T01:19:32;16.60;99.90
17619;DHT22;8928;51.678;6.074;2023-06-14T01:22:20;16.60;99.90
17619;DHT22;8928;51.678;6.074;2023-06-14T01:25:08;16.60;99.90
17619;DHT22;8928;51.678;6.074;2023-06-14T01:28:00;16.50;99.90
17619;DHT22;8928;51.678;6.074;2023-06-14T01:30:51;16.50;99.90
17619;DHT22;8928;51.678;6.074;2023-06-14T01:33:39;16.50;99.90
17619;DHT22;8928;51.678;6.074;2023-06-14T01:36:28;16.40;99.90
17619;DHT22;8928;51.678;6.074;2023-06-14T01:39:15;16.40;99.90
17619;DHT22;8928;51.678;6.074;2023-06-14T01:42:04;16.40;99.90
17619;DHT22;8928;51.678;6.074;2023-06-14T01:44:53;16.40;99.90
17619;DHT22;8928;51.678;6.074;2023-06-14T01:47:41;16.30;99.90
17619;DHT22;8928;51.678;6.074;2023-06-14T01:50:28;16.30;99.90
17619;DHT22;8928;51.678;6.074;2023-06-14T01:53:16;16.20;99.90
17619;DHT22;8928;51.678;6.074;2023-06-14T01:56:03;16.10;99.90
17619;DHT22;8928;51.678;6.074;2023-06-14T01:58:52;16.10;99.90
17619;DHT22;8928;51.678;6.074;2023-06-14T02:01:39;16.00;99.90
17619;DHT22;8928;51.678;6.074;2023-06-14T02:04:26;16.00;99.90
17619;DHT22;8928;51.678;6.074;2023-06-14T02:07:13;15.90;99.90
17619;DHT22;8928;51.678;6.074;2023-06-14T02:10:00;15.90;99.90
17619;DHT22;8928;51.678;6.074;2023-06-14T02:12:48;15.80;99.90
17619;DHT22;8928;51.678;6.074;2023-06-14T02:15:37;15.70;99.90
17619;DHT22;8928;51.678;6.074;2023-06-14T02:18:24;15.60;99.90
17619;DHT22;8928;51.678;6.074;2023-06-14T02:21:11;15.60;99.90
17619;DHT22;8928;51.678;6.074;2023-06-14T02:23:58;15.50;99.90
17619;DHT22;8928;51.678;6.074;2023-06-14T02:26:47;15.50;99.90
17619;DHT22;8928;51.678;6.074;2023-06-14T02:29:34;15.50;99.90
17619;DHT22;8928;51.678;6.074;2023-06-14T02:32:23;15.40;99.90
17619;DHT22;8928;51.678;6.074;2023-06-14T02:35:10;15.40;99.90
17619;DHT22;8928;51.678;6.074;2023-06-14T02:37:57;15.30;99.90
17619;DHT22;8928;51.678;6.074;2023-06-14T02:40:44;15.30;99.90
17619;DHT22;8928;51.678;6.074;2023-06-14T02:43:31;15.30;99.90
17619;DHT22;8928;51.678;6.074;2023-06-14T02:46:18;15.20;99.90
17619;DHT22;8928;51.678;6.074;2023-06-14T02:49:07;15.20;99.90
17619;DHT22;8928;51.678;6.074;2023-06-14T02:51:54;15.10;99.90
17619;DHT22;8928;51.678;6.074;2023-06-14T02:54:41;15.10;99.90
17619;DHT22;8928;51.678;6.074;2023-06-14T02:57:28;15.00;99.90
17619;DHT22;8928;51.678;6.074;2023-06-14T03:00:15;15.00;99.90
17619;DHT22;8928;51.678;6.074;2023-06-14T03:03:02;14.90;99.90
17619;DHT22;8928;51.678;6.074;2023-06-14T03:05:52;14.80;99.90
17619;DHT22;8928;51.678;6.074;2023-06-14T03:08:40;14.80;99.90
17619;DHT22;8928;51.678;6.074;2023-06-14T03:11:27;14.70;99.90
17619;DHT22;8928;51.678;6.074;2023-06-14T03:14:15;14.70;99.90
17619;DHT22;8928;51.678;6.074;2023-06-14T03:17:03;14.70;99.90
17619;DHT22;8928;51.678;6.074;2023-06-14T03:19:50;14.70;99.90
17619;DHT22;8928;51.678;6.074;2023-06-14T03:22:39;14.70;99.90
17619;DHT22;8928;51.678;6.074;2023-06-14T03:25:26;14.70;99.90
17619;DHT22;8928;51.678;6.074;2023-06-14T03:28:15;14.60;99.90
17619;DHT22;8928;51.678;6.074;2023-06-14T03:31:02;14.60;99.90
17619;DHT22;8928;51.678;6.074;2023-06-14T03:33:49;14.70;99.90
17619;DHT22;8928;51.678;6.074;2023-06-14T03:36:36;14.60;99.90
17619;DHT22;8928;51.678;6.074;2023-06-14T03:39:25;14.60;99.90
17619;DHT22;8928;51.678;6.074;2023-06-14T03:42:12;14.60;99.90
17619;DHT22;8928;51.678;6.074;2023-06-14T03:44:59;14.60;99.90
17619;DHT22;8928;51.678;6.074;2023-06-14T03:47:47;14.60;99.90
17619;DHT22;8928;51.678;6.074;2023-06-14T03:50:34;14.60;99.90
17619;DHT22;8928;51.678;6.074;2023-06-14T03:53:23;14.70;99.90
17619;DHT22;8928;51.678;6.074;2023-06-14T03:56:12;14.60;99.90
17619;DHT22;8928;51.678;6.074;2023-06-14T03:58:59;14.70;99.90
17619;DHT22;8928;51.678;6.074;2023-06-14T04:01:46;14.70;99.90
17619;DHT22;8928;51.678;6.074;2023-06-14T04:04:33;14.80;99.90
17619;DHT22;8928;51.678;6.074;2023-06-14T04:07:21;14.90;99.90
17619;DHT22;8928;51.678;6.074;2023-06-14T04:10:09;14.90;99.90
17619;DHT22;8928;51.678;6.074;2023-06-14T04:12:58;14.90;99.90
17619;DHT22;8928;51.678;6.074;2023-06-14T04:15:45;15.00;99.90
17619;DHT22;8928;51.678;6.074;2023-06-14T04:18:32;15.10;99.90
17619;DHT22;8928;51.678;6.074;2023-06-14T04:21:19;15.20;99.90
17619;DHT22;8928;51.678;6.074;2023-06-14T04:24:07;15.20;99.90
17619;DHT22;8928;51.678;6.074;2023-06-14T04:26:59;15.30;99.90
17619;DHT22;8928;51.678;6.074;2023-06-14T04:29:48;15.30;99.90
17619;DHT22;8928;51.678;6.074;2023-06-14T04:32:39;15.30;99.90
17619;DHT22;8928;51.678;6.074;2023-06-14T04:35:26;15.40;99.90
17619;DHT22;8928;51.678;6.074;2023-06-14T04:38:14;15.50;99.90
17619;DHT22;8928;51.678;6.074;2023-06-14T04:41:01;15.60;99.90
17619;DHT22;8928;51.678;6.074;2023-06-14T04:43:49;15.80;99.90
17619;DHT22;8928;51.678;6.074;2023-06-14T04:46:37;15.80;99.90
17619;DHT22;8928;51.678;6.074;2023-06-14T04:49:31;16.00;99.90
17619;DHT22;8928;51.678;6.074;2023-06-14T04:52:19;16.10;99.90
17619;DHT22;8928;51.678;6.074;2023-06-14T04:55:08;16.30;99.90
17619;DHT22;8928;51.678;6.074;2023-06-14T04:57:55;16.50;99.90
17619;DHT22;8928;51.678;6.074;2023-06-14T05:00:42;16.70;99.90
17619;DHT22;8928;51.678;6.074;2023-06-14T05:03:31;16.90;99.90
17619;DHT22;8928;51.678;6.074;2023-06-14T05:06:20;17.20;99.90
17619;DHT22;8928;51.678;6.074;2023-06-14T05:09:08;17.40;99.90
17619;DHT22;8928;51.678;6.074;2023-06-14T05:11:55;17.60;99.90
17619;DHT22;8928;51.678;6.074;2023-06-14T05:14:44;17.80;99.90
17619;DHT22;8928;51.678;6.074;2023-06-14T05:17:31;18.00;99.90
17619;DHT22;8928;51.678;6.074;2023-06-14T05:20:19;18.20;99.90
17619;DHT22;8928;51.678;6.074;2023-06-14T05:23:06;18.30;99.90
17619;DHT22;8928;51.678;6.074;2023-06-14T05:25:54;18.30;99.90
17619;DHT22;8928;51.678;6.074;2023-06-14T05:28:41;18.40;99.90
17619;DHT22;8928;51.678;6.074;2023-06-14T05:31:28;18.60;99.90
17619;DHT22;8928;51.678;6.074;2023-06-14T05:34:15;18.70;99.90
17619;DHT22;8928;51.678;6.074;2023-06-14T05:37:04;18.90;99.90
17619;DHT22;8928;51.678;6.074;2023-06-14T05:39:51;19.00;99.90
17619;DHT22;8928;51.678;6.074;2023-06-14T05:42:38;19.00;99.90
17619;DHT22;8928;51.678;6.074;2023-06-14T05:45:25;19.10;99.90
17619;DHT22;8928;51.678;6.074;2023-06-14T05:48:12;19.20;99.90
17619;DHT22;8928;51.678;6.074;2023-06-14T05:50:59;19.20;99.90
17619;DHT22;8928;51.678;6.074;2023-06-14T05:53:48;19.40;99.90
17619;DHT22;8928;51.678;6.074;2023-06-14T05:56:35;19.40;99.90
17619;DHT22;8928;51.678;6.074;2023-06-14T05:59:23;19.40;99.90
17619;DHT22;8928;51.678;6.074;2023-06-14T06:02:10;19.40;99.90
17619;DHT22;8928;51.678;6.074;2023-06-14T06:04:57;19.60;99.90
17619;DHT22;8928;51.678;6.074;2023-06-14T06:07:44;19.70;99.90
17619;DHT22;8928;51.678;6.074;2023-06-14T06:10:32;19.70;99.90
17619;DHT22;8928;51.678;6.074;2023-06-14T06:13:19;19.70;99.90
17619;DHT22;8928;51.678;6.074;2023-06-14T06:16:06;19.70;99.90
17619;DHT22;8928;51.678;6.074;2023-06-14T06:18:53;19.70;99.90
17619;DHT22;8928;51.678;6.074;2023-06-14T06:21:40;19.80;99.90
17619;DHT22;8928;51.678;6.074;2023-06-14T06:24:27;19.80;99.90
17619;DHT22;8928;51.678;6.074;2023-06-14T06:27:16;20.00;99.90
17619;DHT22;8928;51.678;6.074;2023-06-14T06:30:05;20.10;99.90
17619;DHT22;8928;51.678;6.074;2023-06-14T06:32:53;20.20;99.90
17619;DHT22;8928;51.678;6.074;2023-06-14T06:35:41;20.30;99.90
17619;DHT22;8928;51.678;6.074;2023-06-14T06:38:28;20.40;99.90
17619;DHT22;8928;51.678;6.074;2023-06-14T06:41:15;20.50;99.90
17619;DHT22;8928;51.678;6.074;2023-06-14T06:44:04;20.60;99.90
17619;DHT22;8928;51.678;6.074;2023-06-14T06:46:51;20.70;99.90
17619;DHT22;8928;51.678;6.074;2023-06-14T06:49:38;20.80;99.90
17619;DHT22;8928;51.678;6.074;2023-06-14T06:52:25;20.80;99.90
17619;DHT22;8928;51.678;6.074;2023-06-14T06:55:12;21.00;99.90
17619;DHT22;8928;51.678;6.074;2023-06-14T06:58:00;21.00;99.90
17619;DHT22;8928;51.678;6.074;2023-06-14T07:00:48;21.10;99.90
17619;DHT22;8928;51.678;6.074;2023-06-14T07:03:35;21.20;99.90
17619;DHT22;8928;51.678;6.074;2023-06-14T07:06:22;21.30;99.90
17619;DHT22;8928;51.678;6.074;2023-06-14T07:09:12;21.40;99.90
17619;DHT22;8928;51.678;6.074;2023-06-14T07:12:01;21.50;99.90
17619;DHT22;8928;51.678;6.074;2023-06-14T07:14:49;21.60;99.90
17619;DHT22;8928;51.678;6.074;2023-06-14T07:17:37;21.70;99.90
17619;DHT22;8928;51.678;6.074;2023-06-14T07:20:24;21.90;99.90
17619;DHT22;8928;51.678;6.074;2023-06-14T07:23:11;22.00;99.90
17619;DHT22;8928;51.678;6.074;2023-06-14T07:25:58;22.20;99.90
17619;DHT22;8928;51.678;6.074;2023-06-14T07:28:45;22.30;99.90
17619;DHT22;8928;51.678;6.074;2023-06-14T07:31:33;22.30;99.90
17619;DHT22;8928;51.678;6.074;2023-06-14T07:34:21;22.40;99.90
17619;DHT22;8928;51.678;6.074;2023-06-14T07:37:08;22.40;99.90
17619;DHT22;8928;51.678;6.074;2023-06-14T07:39:55;22.60;99.90
17619;DHT22;8928;51.678;6.074;2023-06-14T07:42:42;22.90;99.90
17619;DHT22;8928;51.678;6.074;2023-06-14T07:45:29;23.00;99.90
17619;DHT22;8928;51.678;6.074;2023-06-14T07:48:17;23.10;99.90
17619;DHT22;8928;51.678;6.074;2023-06-14T07:51:05;23.30;99.90
17619;DHT22;8928;51.678;6.074;2023-06-14T07:53:52;23.50;99.90
17619;DHT22;8928;51.678;6.074;2023-06-14T07:56:39;23.70;99.90
17619;DHT22;8928;51.678;6.074;2023-06-14T07:59:26;23.70;98.90
17619;DHT22;8928;51.678;6.074;2023-06-14T08:02:13;23.70;99.10
17619;DHT22;8928;51.678;6.074;2023-06-14T08:05:01;24.00;98.20
17619;DHT22;8928;51.678;6.074;2023-06-14T08:07:49;24.10;97.10
17619;DHT22;8928;51.678;6.074;2023-06-14T08:10:36;24.40;96.10
17619;DHT22;8928;51.678;6.074;2023-06-14T08:13:23;24.50;94.60
17619;DHT22;8928;51.678;6.074;2023-06-14T08:16:11;24.60;94.90
17619;DHT22;8928;51.678;6.074;2023-06-14T08:18:58;24.70;92.60
17619;DHT22;8928;51.678;6.074;2023-06-14T08:21:45;24.70;92.60
17619;DHT22;8928;51.678;6.074;2023-06-14T08:24:33;24.90;91.60
17619;DHT22;8928;51.678;6.074;2023-06-14T08:27:20;25.00;90.70
17619;DHT22;8928;51.678;6.074;2023-06-14T08:30:09;25.10;89.10
17619;DHT22;8928;51.678;6.074;2023-06-14T08:32:56;25.30;89.30
17619;DHT22;8928;51.678;6.074;2023-06-14T08:35:44;25.40;87.30
17619;DHT22;8928;51.678;6.074;2023-06-14T08:38:31;25.40;85.50
17619;DHT22;8928;51.678;6.074;2023-06-14T08:41:21;25.50;83.20
17619;DHT22;8928;51.678;6.074;2023-06-14T08:44:09;25.60;81.70
17619;DHT22;8928;51.678;6.074;2023-06-14T08:46:56;25.60;80.10
17619;DHT22;8928;51.678;6.074;2023-06-14T08:49:46;25.80;80.10
17619;DHT22;8928;51.678;6.074;2023-06-14T08:52:37;26.10;80.90
17619;DHT22;8928;51.678;6.074;2023-06-14T08:55:27;26.20;78.80
17619;DHT22;8928;51.678;6.074;2023-06-14T08:58:16;26.30;76.20
17619;DHT22;8928;51.678;6.074;2023-06-14T09:01:03;26.30;73.50
17619;DHT22;8928;51.678;6.074;2023-06-14T09:03:53;26.30;73.40
17619;DHT22;8928;51.678;6.074;2023-06-14T09:06:43;26.60;74.00
17619;DHT22;8928;51.678;6.074;2023-06-14T09:09:30;26.80;73.40
17619;DHT22;8928;51.678;6.074;2023-06-14T09:12:17;27.00;73.70
17619;DHT22;8928;51.678;6.074;2023-06-14T09:15:07;27.10;72.50
17619;DHT22;8928;51.678;6.074;2023-06-14T09:17:54;27.10;68.00
17619;DHT22;8928;51.678;6.074;2023-06-14T09:20:41;27.10;68.20
17619;DHT22;8928;51.678;6.074;2023-06-14T09:23:28;27.30;69.20
17619;DHT22;8928;51.678;6.074;2023-06-14T09:26:17;27.40;67.90
17619;DHT22;8928;51.678;6.074;2023-06-14T09:29:05;27.50;67.30
17619;DHT22;8928;51.678;6.074;2023-06-14T09:31:53;27.30;66.10
17619;DHT22;8928;51.678;6.074;2023-06-14T09:34:41;27.00;65.20
17619;DHT22;8928;51.678;6.074;2023-06-14T09:37:28;27.10;66.40
17619;DHT22;8928;51.678;6.074;2023-06-14T09:40:20;27.30;68.40
17619;DHT22;8928;51.678;6.074;2023-06-14T09:43:07;27.40;65.30
17619;DHT22;8928;51.678;6.074;2023-06-14T09:45:57;27.50;63.30
17619;DHT22;8928;51.678;6.074;2023-06-14T09:48:46;27.50;61.50
17619;DHT22;8928;51.678;6.074;2023-06-14T09:51:34;27.80;63.40
17619;DHT22;8928;51.678;6.074;2023-06-14T09:54:22;27.60;62.10
17619;DHT22;8928;51.678;6.074;2023-06-14T09:57:11;27.60;63.40
17619;DHT22;8928;51.678;6.074;2023-06-14T10:00:01;27.60;61.60
17619;DHT22;8928;51.678;6.074;2023-06-14T10:02:54;27.60;61.70
17619;DHT22;8928;51.678;6.074;2023-06-14T10:05:49;27.80;62.00
17619;DHT22;8928;51.678;6.074;2023-06-14T10:08:38;27.80;60.50
17619;DHT22;8928;51.678;6.074;2023-06-14T10:11:27;27.90;58.80
17619;DHT22;8928;51.678;6.074;2023-06-14T10:14:14;27.80;58.60
17619;DHT22;8928;51.678;6.074;2023-06-14T10:17:06;27.80;58.40
17619;DHT22;8928;51.678;6.074;2023-06-14T10:20:02;27.80;59.50
17619;DHT22;8928;51.678;6.074;2023-06-14T10:22:58;28.00;58.20
17619;DHT22;8928;51.678;6.074;2023-06-14T10:25:50;28.50;59.20
17619;DHT22;8928;51.678;6.074;2023-06-14T10:28:38;28.50;59.30
17619;DHT22;8928;51.678;6.074;2023-06-14T10:31:41;28.70;59.10
17619;DHT22;8928;51.678;6.074;2023-06-14T10:34:29;28.90;59.10
17619;DHT22;8928;51.678;6.074;2023-06-14T10:37:17;29.00;58.40
17619;DHT22;8928;51.678;6.074;2023-06-14T10:40:07;28.90;56.40
17619;DHT22;8928;51.678;6.074;2023-06-14T10:42:54;28.80;55.20
17619;DHT22;8928;51.678;6.074;2023-06-14T10:46:12;28.90;55.70
17619;DHT22;8928;51.678;6.074;2023-06-14T10:48:59;28.90;56.10
17619;DHT22;8928;51.678;6.074;2023-06-14T10:51:50;29.10;54.40
17619;DHT22;8928;51.678;6.074;2023-06-14T10:54:38;29.30;53.90
17619;DHT22;8928;51.678;6.074;2023-06-14T10:57:26;29.10;52.60
17619;DHT22;8928;51.678;6.074;2023-06-14T11:00:14;28.90;51.10
17619;DHT22;8928;51.678;6.074;2023-06-14T11:03:50;29.10;52.10
17619;DHT22;8928;51.678;6.074;2023-06-14T11:06:48;29.20;52.30
17619;DHT22;8928;51.678;6.074;2023-06-14T11:09:58;29.40;50.60
17619;DHT22;8928;51.678;6.074;2023-06-14T11:12:54;29.60;51.00
17619;DHT22;8928;51.678;6.074;2023-06-14T11:15:44;29.80;48.30
17619;DHT22;8928;51.678;6.074;2023-06-14T11:18:32;30.20;49.00
17619;DHT22;8928;51.678;6.074;2023-06-14T11:21:19;30.40;48.30
17619;DHT22;8928;51.678;6.074;2023-06-14T11:24:10;30.40;48.30
17619;DHT22;8928;51.678;6.074;2023-06-14T11:26:57;30.50;47.70
17619;DHT22;8928;51.678;6.074;2023-06-14T11:29:49;30.40;47.30
17619;DHT22;8928;51.678;6.074;2023-06-14T11:32:37;30.50;48.20
17619;DHT22;8928;51.678;6.074;2023-06-14T11:35:25;30.80;47.60
17619;DHT22;8928;51.678;6.074;2023-06-14T11:38:12;30.70;45.90
17619;DHT22;8928;51.678;6.074;2023-06-14T11:40:59;30.70;47.20
17619;DHT22;8928;51.678;6.074;2023-06-14T11:43:47;30.60;46.80
17619;DHT22;8928;51.678;6.074;2023-06-14T11:46:36;30.70;46.20
17619;DHT22;8928;51.678;6.074;2023-06-14T11:49:23;30.90;48.00
17619;DHT22;8928;51.678;6.074;2023-06-14T11:52:11;30.90;45.60
17619;DHT22;8928;51.678;6.074;2023-06-14T11:54:58;31.00;46.10
17619;DHT22;8928;51.678;6.074;2023-06-14T11:57:46;31.10;44.40
17619;DHT22;8928;51.678;6.074;2023-06-14T12:00:35;31.10;44.10
17619;DHT22;8928;51.678;6.074;2023-06-14T12:03:24;31.30;44.40
17619;DHT22;8928;51.678;6.074;2023-06-14T12:06:12;31.60;45.10
17619;DHT22;8928;51.678;6.074;2023-06-14T12:09:03;31.70;43.60
17619;DHT22;8928;51.678;6.074;2023-06-14T12:12:00;31.80;43.70
17619;DHT22;8928;51.678;6.074;2023-06-14T12:14:47;31.80;43.40
17619;DHT22;8928;51.678;6.074;2023-06-14T12:17:36;31.80;42.30
17619;DHT22;8928;51.678;6.074;2023-06-14T12:20:30;32.00;42.80
17619;DHT22;8928;51.678;6.074;2023-06-14T12:23:17;31.90;43.10
17619;DHT22;8928;51.678;6.074;2023-06-14T12:26:04;32.00;43.60
17619;DHT22;8928;51.678;6.074;2023-06-14T12:28:52;32.30;45.30
17619;DHT22;8928;51.678;6.074;2023-06-14T12:31:39;32.70;44.30
17619;DHT22;8928;51.678;6.074;2023-06-14T12:34:26;32.80;41.00
17619;DHT22;8928;51.678;6.074;2023-06-14T12:37:15;32.80;41.70
17619;DHT22;8928;51.678;6.074;2023-06-14T12:40:02;33.00;40.00
17619;DHT22;8928;51.678;6.074;2023-06-14T12:42:51;33.40;40.20
17619;DHT22;8928;51.678;6.074;2023-06-14T12:45:38;33.60;39.30
17619;DHT22;8928;51.678;6.074;2023-06-14T12:48:25;33.30;38.70
17619;DHT22;8928;51.678;6.074;2023-06-14T12:51:13;33.20;38.20
17619;DHT22;8928;51.678;6.074;2023-06-14T12:54:01;33.40;39.20
17619;DHT22;8928;51.678;6.074;2023-06-14T12:56:49;33.70;37.90
17619;DHT22;8928;51.678;6.074;2023-06-14T12:59:37;34.30;38.50
17619;DHT22;8928;51.678;6.074;2023-06-14T13:02:24;34.80;35.70
17619;DHT22;8928;51.678;6.074;2023-06-14T13:05:11;34.70;34.90
17619;DHT22;8928;51.678;6.074;2023-06-14T13:07:58;34.80;35.10
17619;DHT22;8928;51.678;6.074;2023-06-14T13:10:47;35.10;36.70
17619;DHT22;8928;51.678;6.074;2023-06-14T13:13:34;35.40;36.50
17619;DHT22;8928;51.678;6.074;2023-06-14T13:16:21;35.30;36.20
17619;DHT22;8928;51.678;6.074;2023-06-14T13:19:08;35.80;34.60
17619;DHT22;8928;51.678;6.074;2023-06-14T13:21:55;36.10;34.30
17619;DHT22;8928;51.678;6.074;2023-06-14T13:24:42;35.80;32.10
17619;DHT22;8928;51.678;6.074;2023-06-14T13:27:31;35.70;34.10
17619;DHT22;8928;51.678;6.074;2023-06-14T13:30:18;35.80;32.50
17619;DHT22;8928;51.678;6.074;2023-06-14T13:33:05;36.20;33.50
17619;DHT22;8928;51.678;6.074;2023-06-14T13:35:52;36.50;32.80
17619;DHT22;8928;51.678;6.074;2023-06-14T13:38:39;36.70;32.50
17619;DHT22;8928;51.678;6.074;2023-06-14T13:41:28;36.70;32.50
17619;DHT22;8928;51.678;6.074;2023-06-14T13:44:18;36.50;32.50
17619;DHT22;8928;51.678;6.074;2023-06-14T13:47:07;36.70;32.80
17619;DHT22;8928;51.678;6.074;2023-06-14T13:49:54;36.80;31.80
17619;DHT22;8928;51.678;6.074;2023-06-14T13:52:41;37.00;31.30
17619;DHT22;8928;51.678;6.074;2023-06-14T13:55:28;37.50;31.70
17619;DHT22;8928;51.678;6.074;2023-06-14T13:58:15;37.60;30.80
17619;DHT22;8928;51.678;6.074;2023-06-14T14:01:03;37.90;30.00
17619;DHT22;8928;51.678;6.074;2023-06-14T14:03:51;38.30;30.00
17619;DHT22;8928;51.678;6.074;2023-06-14T14:06:38;38.00;30.00
17619;DHT22;8928;51.678;6.074;2023-06-14T14:09:25;38.10;29.40
17619;DHT22;8928;51.678;6.074;2023-06-14T14:12:12;38.20;29.80
17619;DHT22;8928;51.678;6.074;2023-06-14T14:15:00;38.30;29.00
17619;DHT22;8928;51.678;6.074;2023-06-14T14:17:48;38.10;28.80
17619;DHT22;8928;51.678;6.074;2023-06-14T14:20:35;38.30;28.90
17619;DHT22;8928;51.678;6.074;2023-06-14T14:23:22;38.30;28.80
17619;DHT22;8928;51.678;6.074;2023-06-14T14:26:09;38.20;28.10
17619;DHT22;8928;51.678;6.074;2023-06-14T14:28:56;38.50;28.20
17619;DHT22;8928;51.678;6.074;2023-06-14T14:31:44;38.70;27.80
17619;DHT22;8928;51.678;6.074;2023-06-14T14:34:32;39.30;28.10
17619;DHT22;8928;51.678;6.074;2023-06-14T14:37:19;39.40;27.70
17619;DHT22;8928;51.678;6.074;2023-06-14T14:40:08;39.10;26.90
17619;DHT22;8928;51.678;6.074;2023-06-14T14:42:55;39.60;27.00
17619;DHT22;8928;51.678;6.074;2023-06-14T14:45:42;38.70;26.90
17619;DHT22;8928;51.678;6.074;2023-06-14T14:48:29;39.10;27.00
17619;DHT22;8928;51.678;6.074;2023-06-14T14:51:18;39.30;26.70
17619;DHT22;8928;51.678;6.074;2023-06-14T14:54:05;39.50;26.40
17619;DHT22;8928;51.678;6.074;2023-06-14T14:56:52;39.50;25.50
17619;DHT22;8928;51.678;6.074;2023-06-14T14:59:39;39.30;25.30
17619;DHT22;8928;51.678;6.074;2023-06-14T15:02:26;39.70;25.50
17619;DHT22;8928;51.678;6.074;2023-06-14T15:05:13;40.00;25.70
17619;DHT22;8928;51.678;6.074;2023-06-14T15:08:02;40.20;26.20
17619;DHT22;8928;51.678;6.074;2023-06-14T15:10:49;40.10;25.60
17619;DHT22;8928;51.678;6.074;2023-06-14T15:13:36;40.00;24.70
17619;DHT22;8928;51.678;6.074;2023-06-14T15:16:23;39.50;25.90
17619;DHT22;8928;51.678;6.074;2023-06-14T15:19:10;39.70;25.00
17619;DHT22;8928;51.678;6.074;2023-06-14T15:21:57;40.20;25.10
17619;DHT22;8928;51.678;6.074;2023-06-14T15:24:46;40.90;24.60
17619;DHT22;8928;51.678;6.074;2023-06-14T15:27:33;40.70;24.70
17619;DHT22;8928;51.678;6.074;2023-06-14T15:30:20;40.90;25.40
17619;DHT22;8928;51.678;6.074;2023-06-14T15:33:07;41.30;24.90
17619;DHT22;8928;51.678;6.074;2023-06-14T15:35:54;40.70;23.80
17619;DHT22;8928;51.678;6.074;2023-06-14T15:38:41;40.50;24.20
17619;DHT22;8928;51.678;6.074;2023-06-14T15:41:30;40.50;24.50
17619;DHT22;8928;51.678;6.074;2023-06-14T15:44:17;40.80;23.70
17619;DHT22;8928;51.678;6.074;2023-06-14T15:47:05;41.10;24.00
17619;DHT22;8928;51.678;6.074;2023-06-14T15:49:52;40.80;23.30
17619;DHT22;8928;51.678;6.074;2023-06-14T15:52:40;40.70;23.10
17619;DHT22;8928;51.678;6.074;2023-06-14T15:55:27;40.90;22.80
17619;DHT22;8928;51.678;6.074;2023-06-14T15:58:15;40.80;22.90
17619;DHT22;8928;51.678;6.074;2023-06-14T16:01:02;40.60;22.70
17619;DHT22;8928;51.678;6.074;2023-06-14T16:03:50;40.50;22.80
17619;DHT22;8928;51.678;6.074;2023-06-14T16:06:37;40.80;23.50
17619;DHT22;8928;51.678;6.074;2023-06-14T16:09:24;41.10;23.60
17619;DHT22;8928;51.678;6.074;2023-06-14T16:12:11;41.10;22.90
17619;DHT22;8928;51.678;6.074;2023-06-14T16:15:00;40.90;22.20
17619;DHT22;8928;51.678;6.074;2023-06-14T16:17:47;40.50;22.60
17619;DHT22;8928;51.678;6.074;2023-06-14T16:20:34;40.10;22.70
17619;DHT22;8928;51.678;6.074;2023-06-14T16:23:22;40.20;22.70
17619;DHT22;8928;51.678;6.074;2023-06-14T16:26:10;40.10;23.00
17619;DHT22;8928;51.678;6.074;2023-06-14T16:28:58;40.00;23.20
17619;DHT22;8928;51.678;6.074;2023-06-14T16:31:46;38.90;22.80
17619;DHT22;8928;51.678;6.074;2023-06-14T16:34:33;39.10;23.10
17619;DHT22;8928;51.678;6.074;2023-06-14T16:37:21;39.00;22.50
17619;DHT22;8928;51.678;6.074;2023-06-14T16:40:09;38.80;22.60
17619;DHT22;8928;51.678;6.074;2023-06-14T16:42:56;38.50;22.10
17619;DHT22;8928;51.678;6.074;2023-06-14T16:45:43;38.30;22.40
17619;DHT22;8928;51.678;6.074;2023-06-14T16:48:31;38.70;22.40
17619;DHT22;8928;51.678;6.074;2023-06-14T16:51:18;38.80;23.40
17619;DHT22;8928;51.678;6.074;2023-06-14T16:54:05;39.00;22.60
17619;DHT22;8928;51.678;6.074;2023-06-14T16:56:52;38.90;22.10
17619;DHT22;8928;51.678;6.074;2023-06-14T16:59:39;39.10;21.90
17619;DHT22;8928;51.678;6.074;2023-06-14T17:02:27;38.60;22.30
17619;DHT22;8928;51.678;6.074;2023-06-14T17:05:15;38.70;21.80
17619;DHT22;8928;51.678;6.074;2023-06-14T17:08:03;39.00;22.40
17619;DHT22;8928;51.678;6.074;2023-06-14T17:10:50;38.70;22.70
17619;DHT22;8928;51.678;6.074;2023-06-14T17:13:38;38.60;22.60
17619;DHT22;8928;51.678;6.074;2023-06-14T17:16:25;38.30;22.50
17619;DHT22;8928;51.678;6.074;2023-06-14T17:19:12;38.50;22.50
17619;DHT22;8928;51.678;6.074;2023-06-14T17:22:01;38.40;23.00
17619;DHT22;8928;51.678;6.074;2023-06-14T17:24:48;38.20;22.60
17619;DHT22;8928;51.678;6.074;2023-06-14T17:27:35;38.30;22.70
17619;DHT22;8928;51.678;6.074;2023-06-14T17:30:22;37.90;23.30
17619;DHT22;8928;51.678;6.074;2023-06-14T17:33:09;37.70;23.20
17619;DHT22;8928;51.678;6.074;2023-06-14T17:35:56;37.70;22.90
17619;DHT22;8928;51.678;6.074;2023-06-14T17:38:44;37.50;23.30
17619;DHT22;8928;51.678;6.074;2023-06-14T17:41:31;37.30;23.40
17619;DHT22;8928;51.678;6.074;2023-06-14T17:44:18;36.90;23.50
17619;DHT22;8928;51.678;6.074;2023-06-14T17:47:06;36.70;23.20
17619;DHT22;8928;51.678;6.074;2023-06-14T17:49:53;36.00;23.50
17619;DHT22;8928;51.678;6.074;2023-06-14T17:52:40;35.70;23.90
17619;DHT22;8928;51.678;6.074;2023-06-14T17:55:29;35.60;24.40
17619;DHT22;8928;51.678;6.074;2023-06-14T17:58:16;35.80;23.90